Time;durP1;ratioP1;P1;durP2;ratioP2;P2;SDS_P1;SDS_P2;PMS_P1;PMS_P2;Temp;Humidity;BMP_temperature;BMP_pressure;BME280_temperature;BME280_humidity;BME280_pressure;Samples;Min_cycle;Max_cycle;Signal;HPM_P1;HPM_P2
2023/03/01 00:01:46;;;;;;;13.02;7.60;;;;;;;;;;6035982;23;20348;-88
2023/03/01 00:04:16;;;;;;;11.10;7.35;;;;;;;;;;6012621;23;20015;-88
2023/03/01 00:06:45;;;;;;;11.40;9.13;;;;;;;;;;6047327;23;20344;-88
2023/03/01 00:09:13;;;;;;;14.63;10.65;;;;;;;;;;5989126;23;20085;-88
2023/03/01 00:11:44;;;;;;;11.10;8.00;;;;;;;;;;6036071;23;20026;-88
2023/03/01 00:14:11;;;;;;;12.68;8.55;;;;;;;;;;6012020;23;20356;-88
2023/03/01 00:16:40;;;;;;;13.57;8.65;;;;;;;;;;6036272;23;20023;-88
2023/03/01 00:19:08;;;;;;;11.25;9.48;;;;;;;;;;6046258;23;20020;-88
2023/03/01 00:21:41;;;;;;;14.30;9.45;;;;;;;;;;6036919;23;20023;-88
2023/03/01 00:24:12;;;;;;;14.15;9.30;;;;;;;;;;5989327;23;20090;-88
2023/03/01 00:26:40;;;;;;;15.98;9.65;;;;;;;;;;6012254;23;20019;-88
2023/03/01 00:29:11;;;;;;;12.00;9.02;;;;;;;;;;5988875;23;20019;-88
2023/03/01 00:31:38;;;;;;;10.20;8.63;;;;;;;;;;6011343;23;20467;-88
2023/03/01 00:34:06;;;;;;;10.85;8.52;;;;;;;;;;5987535;23;20019;-87
2023/03/01 00:36:40;;;;;;;12.57;10.45;;;;;;;;;;6012804;23;20020;-87
2023/03/01 00:39:15;;;;;;;15.63;8.65;;;;;;;;;;6037904;23;20019;-89
2023/03/01 00:41:42;;;;;;;15.48;10.00;;;;;;;;;;6011196;23;20018;-87
2023/03/01 00:44:13;;;;;;;14.02;9.80;;;;;;;;;;6010762;23;20016;-86
2023/03/01 00:46:43;;;;;;;13.02;8.88;;;;;;;;;;5987824;23;20045;-87
2023/03/01 00:49:11;;;;;;;13.80;9.95;;;;;;;;;;6013565;23;20360;-88
2023/03/01 00:51:41;;;;;;;14.02;10.15;;;;;;;;;;6010396;23;20019;-87
2023/03/01 00:54:12;;;;;;;14.80;8.27;;;;;;;;;;6044866;23;20066;-88
2023/03/01 00:56:42;;;;;;;14.98;9.18;;;;;;;;;;5987930;23;20055;-88
2023/03/01 00:59:10;;;;;;;10.75;9.30;;;;;;;;;;5989424;23;20034;-88
2023/03/01 01:01:39;;;;;;;14.98;10.00;;;;;;;;;;5988294;23;20337;-87
2023/03/01 01:04:12;;;;;;;10.50;9.18;;;;;;;;;;6012825;23;20027;-88
2023/03/01 01:06:42;;;;;;;14.63;10.32;;;;;;;;;;6036406;23;20022;-88
2023/03/01 01:09:16;;;;;;;13.48;9.93;;;;;;;;;;6013009;23;20080;-88
2023/03/01 01:11:44;;;;;;;13.45;9.38;;;;;;;;;;5988368;23;20020;-87
2023/03/01 01:14:17;;;;;;;14.35;11.07;;;;;;;;;;6046983;23;20018;-87
2023/03/01 01:16:46;;;;;;;15.57;9.40;;;;;;;;;;6012739;23;20355;-87
2023/03/01 01:19:15;;;;;;;17.45;11.02;;;;;;;;;;6044890;23;20016;-87
2023/03/01 01:21:44;;;;;;;13.20;10.38;;;;;;;;;;6011299;23;20026;-87
2023/03/01 01:24:12;;;;;;;13.13;11.00;;;;;;;;;;6011522;23;20015;-87
2023/03/01 01:26:42;;;;;;;12.30;9.95;;;;;;;;;;6020465;23;20015;-87
2023/03/01 01:29:15;;;;;;;13.10;9.35;;;;;;;;;;6022319;23;20019;-87
2023/03/01 01:31:46;;;;;;;15.45;11.15;;;;;;;;;;6035547;23;20015;-87
2023/03/01 01:34:18;;;;;;;16.08;10.82;;;;;;;;;;6069794;23;20014;-87
2023/03/01 01:36:49;;;;;;;13.10;9.38;;;;;;;;;;6033256;23;20077;-86
2023/03/01 01:39:16;;;;;;;14.45;11.05;;;;;;;;;;6042574;23;20026;-87
2023/03/01 01:41:46;;;;;;;14.45;10.73;;;;;;;;;;6056525;23;20025;-86
2023/03/01 01:44:17;;;;;;;16.92;10.45;;;;;;;;;;6032366;23;20029;-86
2023/03/01 01:46:50;;;;;;;13.82;9.18;;;;;;;;;;6030235;23;20025;-87
2023/03/01 01:49:23;;;;;;;10.27;9.25;;;;;;;;;;6021229;23;20449;-87
2023/03/01 01:51:58;;;;;;;16.50;11.32;;;;;;;;;;6010891;23;20351;-87
2023/03/01 01:54:35;;;;;;;18.30;12.25;;;;;;;;;;6011313;23;20027;-86
2023/03/01 01:57:04;;;;;;;14.75;10.80;;;;;;;;;;6044830;23;20367;-87
2023/03/01 01:59:32;;;;;;;17.98;10.02;;;;;;;;;;5987927;23;20015;-87
2023/03/01 02:02:04;;;;;;;16.90;13.02;;;;;;;;;;6010124;23;20028;-87
2023/03/01 02:04:32;;;;;;;15.80;9.50;;;;;;;;;;6020677;23;20011;-86
2023/03/01 02:07:04;;;;;;;17.60;11.45;;;;;;;;;;6012025;23;20015;-87
2023/03/01 02:09:35;;;;;;;23.33;14.07;;;;;;;;;;6011066;23;20031;-87
2023/03/01 02:12:03;;;;;;;19.35;11.93;;;;;;;;;;6020935;23;20019;-87
2023/03/01 02:14:32;;;;;;;18.85;12.10;;;;;;;;;;6035506;23;20042;-87
2023/03/01 02:16:59;;;;;;;15.30;10.55;;;;;;;;;;6034365;23;20019;-87
2023/03/01 02:19:41;;;;;;;13.43;10.15;;;;;;;;;;6035692;23;20019;-85
2023/03/01 02:22:20;;;;;;;13.73;11.07;;;;;;;;;;6009790;23;20034;-87
2023/03/01 02:25:00;;;;;;;13.60;11.15;;;;;;;;;;6044092;23;20018;-87
2023/03/01 02:27:36;;;;;;;14.43;12.88;;;;;;;;;;6020672;23;20035;-86
2023/03/01 02:30:06;;;;;;;14.88;11.50;;;;;;;;;;6042458;23;20016;-87
2023/03/01 02:32:35;;;;;;;14.00;9.80;;;;;;;;;;6021011;23;20023;-87
2023/03/01 02:35:02;;;;;;;14.38;11.30;;;;;;;;;;6010469;23;20024;-86
2023/03/01 02:37:29;;;;;;;12.98;10.32;;;;;;;;;;6010565;23;20019;-87
2023/03/01 02:39:59;;;;;;;17.42;9.80;;;;;;;;;;6012040;23;20019;-87
2023/03/01 02:42:31;;;;;;;14.25;11.30;;;;;;;;;;6035233;23;20022;-86
2023/03/01 02:45:01;;;;;;;14.95;11.13;;;;;;;;;;6045279;23;20045;-86
2023/03/01 02:47:34;;;;;;;16.05;11.82;;;;;;;;;;6034125;23;20030;-87
2023/03/01 02:50:01;;;;;;;15.07;10.70;;;;;;;;;;6008373;23;20022;-86
2023/03/01 02:52:41;;;;;;;19.20;13.15;;;;;;;;;;6035788;23;20530;-87
2023/03/01 02:55:12;;;;;;;17.35;11.20;;;;;;;;;;6010729;23;20030;-86
2023/03/01 02:57:42;;;;;;;14.50;10.00;;;;;;;;;;6010112;23;20027;-86
2023/03/01 03:00:18;;;;;;;13.23;10.80;;;;;;;;;;6034746;23;20019;-86
2023/03/01 03:02:48;;;;;;;14.40;10.38;;;;;;;;;;6021199;23;20022;-86
2023/03/01 03:05:20;;;;;;;14.05;10.30;;;;;;;;;;5988860;23;20030;-86
2023/03/01 03:07:52;;;;;;;;;;;;;;;;;;6023263;23;20016;-87
2023/03/01 03:10:24;;;;;;;17.40;10.75;;;;;;;;;;6019271;23;20336;-86
2023/03/01 03:12:55;;;;;;;18.77;13.57;;;;;;;;;;6012358;23;20026;-86
2023/03/01 03:15:23;;;;;;;14.70;11.90;;;;;;;;;;6036599;23;20015;-86
2023/03/01 03:17:52;;;;;;;18.05;11.85;;;;;;;;;;6012616;23;20015;-86
2023/03/01 03:20:21;;;;;;;18.60;12.73;;;;;;;;;;6012022;23;20336;-86
2023/03/01 03:22:50;;;;;;;21.88;13.32;;;;;;;;;;6038311;23;20019;-86
2023/03/01 03:25:22;;;;;;;;;;;;;;;;;;6048282;23;20066;-86
2023/03/01 03:27:56;;;;;;;21.38;13.32;;;;;;;;;;6022330;23;19925;-87
2023/03/01 03:30:24;;;;;;;21.02;12.98;;;;;;;;;;6034290;23;20023;-86
2023/03/01 03:32:53;;;;;;;18.48;12.18;;;;;;;;;;6047882;23;20015;-86
2023/03/01 03:35:25;;;;;;;23.60;14.65;;;;;;;;;;6012448;23;20034;-86
2023/03/01 03:38:03;;;;;;;19.00;12.00;;;;;;;;;;6013508;23;20368;-86
2023/03/01 03:40:32;;;;;;;17.85;12.32;;;;;;;;;;6042537;23;20019;-87
2023/03/01 03:43:03;;;;;;;20.67;13.57;;;;;;;;;;6046761;23;20015;-86
2023/03/01 03:45:32;;;;;;;20.73;12.50;;;;;;;;;;6037296;23;20011;-86
2023/03/01 03:48:29;;;;;;;23.05;13.88;;;;;;;;;;6036606;23;20039;-86
2023/03/01 03:50:57;;;;;;;21.52;13.38;;;;;;;;;;6038901;23;20021;-86
2023/03/01 03:53:25;;;;;;;18.25;12.77;;;;;;;;;;6037374;23;20821;-86
2023/03/01 03:55:53;;;;;;;18.30;11.98;;;;;;;;;;6012050;23;20356;-86
2023/03/01 03:58:22;;;;;;;24.92;13.45;;;;;;;;;;6035890;23;20023;-87
2023/03/01 04:00:51;;;;;;;18.75;13.07;;;;;;;;;;6036161;23;20026;-86
2023/03/01 04:03:19;;;;;;;19.40;13.55;;;;;;;;;;6036950;23;20022;-87
2023/03/01 04:05:51;;;;;;;19.98;15.13;;;;;;;;;;6012432;23;20023;-87
2023/03/01 04:08:24;;;;;;;22.52;13.80;;;;;;;;;;6047625;23;20343;-86
2023/03/01 04:10:58;;;;;;;21.98;12.18;;;;;;;;;;6035997;23;20015;-87
2023/03/01 04:13:25;;;;;;;24.70;15.13;;;;;;;;;;6046170;23;20015;-86
2023/03/01 04:15:55;;;;;;;17.05;14.77;;;;;;;;;;6046733;23;20022;-86
2023/03/01 04:18:24;;;;;;;21.45;13.20;;;;;;;;;;6012382;23;20363;-87
2023/03/01 04:20:55;;;;;;;23.13;15.00;;;;;;;;;;6035732;23;20022;-87
2023/03/01 04:23:24;;;;;;;20.63;14.02;;;;;;;;;;6036063;23;20035;-87
2023/03/01 04:25:55;;;;;;;23.92;15.48;;;;;;;;;;6011138;23;20023;-86
2023/03/01 04:28:26;;;;;;;22.77;13.97;;;;;;;;;;6047218;23;20035;-86
2023/03/01 04:30:54;;;;;;;18.70;13.32;;;;;;;;;;6040174;23;20015;-86
2023/03/01 04:33:22;;;;;;;19.92;13.38;;;;;;;;;;6019865;23;20019;-86
2023/03/01 04:35:50;;;;;;;21.48;13.45;;;;;;;;;;6037771;23;20019;-86
2023/03/01 04:38:19;;;;;;;21.88;13.98;;;;;;;;;;6035890;23;20460;-87
2023/03/01 04:40:47;;;;;;;17.10;12.70;;;;;;;;;;6010017;23;20041;-87
2023/03/01 04:43:15;;;;;;;23.38;15.50;;;;;;;;;;6035745;23;20019;-87
2023/03/01 04:45:42;;;;;;;24.00;17.65;;;;;;;;;;6038176;23;20016;-87
2023/03/01 04:48:11;;;;;;;23.55;16.35;;;;;;;;;;6037880;23;20022;-86
2023/03/01 04:50:41;;;;;;;21.60;13.85;;;;;;;;;;6010520;23;20023;-86
2023/03/01 04:53:08;;;;;;;27.75;15.55;;;;;;;;;;6036110;23;20015;-86
2023/03/01 04:55:39;;;;;;;20.73;12.93;;;;;;;;;;5989425;23;20031;-86
2023/03/01 04:58:06;;;;;;;27.00;14.40;;;;;;;;;;6038059;23;20031;-85
2023/03/01 05:00:34;;;;;;;22.27;14.00;;;;;;;;;;6036952;23;20075;-85
2023/03/01 05:03:03;;;;;;;21.10;14.18;;;;;;;;;;6037004;23;20069;-85
2023/03/01 05:05:34;;;;;;;21.15;14.30;;;;;;;;;;6045368;23;20069;-85
2023/03/01 05:08:04;;;;;;;24.20;14.63;;;;;;;;;;6011392;23;20030;-85
2023/03/01 05:10:32;;;;;;;22.75;15.27;;;;;;;;;;6010857;23;20364;-86
2023/03/01 05:13:00;;;;;;;20.95;14.00;;;;;;;;;;6011877;23;20019;-86
2023/03/01 05:15:31;;;;;;;21.00;11.48;;;;;;;;;;6011246;23;20023;-86
2023/03/01 05:18:01;;;;;;;20.98;14.95;;;;;;;;;;6046871;23;20031;-86
2023/03/01 05:20:30;;;;;;;22.48;13.50;;;;;;;;;;6010841;23;20023;-86
2023/03/01 05:22:59;;;;;;;25.13;15.15;;;;;;;;;;6036162;23;20019;-86
2023/03/01 05:25:26;;;;;;;20.67;14.25;;;;;;;;;;6045554;23;20022;-86
2023/03/01 05:27:56;;;;;;;27.30;17.05;;;;;;;;;;6020437;23;20018;-86
2023/03/01 05:30:27;;;;;;;23.02;16.70;;;;;;;;;;6011225;23;20030;-86
2023/03/01 05:32:56;;;;;;;25.00;14.35;;;;;;;;;;6008776;23;20023;-86
2023/03/01 05:35:24;;;;;;;25.10;16.05;;;;;;;;;;6035632;23;20020;-86
2023/03/01 05:37:51;;;;;;;24.30;15.23;;;;;;;;;;6007014;23;20023;-86
2023/03/01 05:40:21;;;;;;;20.88;14.15;;;;;;;;;;6036298;23;20030;-86
2023/03/01 05:42:50;;;;;;;21.95;15.30;;;;;;;;;;6010085;23;20019;-86
2023/03/01 05:45:18;;;;;;;24.27;14.57;;;;;;;;;;6009163;23;20027;-86
2023/03/01 05:47:48;;;;;;;25.42;15.38;;;;;;;;;;6012111;23;20015;-86
2023/03/01 05:50:20;;;;;;;20.98;14.32;;;;;;;;;;6010692;23;20518;-86
2023/03/01 05:52:49;;;;;;;26.98;16.88;;;;;;;;;;6035408;23;20016;-86
2023/03/01 05:55:17;;;;;;;22.98;16.17;;;;;;;;;;6045313;23;20026;-86
2023/03/01 05:57:45;;;;;;;21.38;15.85;;;;;;;;;;6012594;23;20030;-86
2023/03/01 06:00:16;;;;;;;27.42;16.65;;;;;;;;;;6040774;23;20026;-86
2023/03/01 06:02:43;;;;;;;29.08;15.75;;;;;;;;;;6020124;23;20035;-86
2023/03/01 06:05:13;;;;;;;25.13;16.17;;;;;;;;;;6011611;23;20027;-86
2023/03/01 06:07:41;;;;;;;27.75;15.13;;;;;;;;;;6022197;23;20015;-86
2023/03/01 06:10:10;;;;;;;23.30;15.02;;;;;;;;;;6036254;23;20468;-86
2023/03/01 06:12:39;;;;;;;23.77;14.88;;;;;;;;;;6009145;23;20020;-86
2023/03/01 06:15:09;;;;;;;21.45;14.48;;;;;;;;;;6009425;23;20479;-86
2023/03/01 06:17:37;;;;;;;24.92;14.95;;;;;;;;;;6032213;23;20459;-86
2023/03/01 06:20:06;;;;;;;20.92;14.63;;;;;;;;;;6030500;23;20023;-86
2023/03/01 06:22:34;;;;;;;24.40;17.08;;;;;;;;;;6029710;23;20016;-86
2023/03/01 06:25:05;;;;;;;26.08;14.82;;;;;;;;;;6035292;23;20022;-85
2023/03/01 06:27:32;;;;;;;31.10;13.50;;;;;;;;;;6010885;23;20011;-86
2023/03/01 06:30:00;;;;;;;22.55;14.70;;;;;;;;;;6011447;23;20023;-86
2023/03/01 06:32:27;;;;;;;21.25;15.13;;;;;;;;;;6036686;23;20027;-85
2023/03/01 06:34:59;;;;;;;23.10;16.60;;;;;;;;;;6010276;23;20034;-88
2023/03/01 06:37:26;;;;;;;17.50;13.55;;;;;;;;;;6037023;23;20038;-86
2023/03/01 06:39:55;;;;;;;25.60;14.63;;;;;;;;;;6044912;23;20024;-86
2023/03/01 06:42:22;;;;;;;25.52;16.75;;;;;;;;;;6011970;23;20023;-85
2023/03/01 06:44:52;;;;;;;26.00;17.02;;;;;;;;;;6010516;23;20034;-86
2023/03/01 06:47:21;;;;;;;21.02;14.30;;;;;;;;;;5982952;23;20028;-86
2023/03/01 06:49:51;;;;;;;21.92;14.70;;;;;;;;;;6035717;23;20022;-86
2023/03/01 06:52:18;;;;;;;23.27;15.23;;;;;;;;;;6036657;23;20015;-86
2023/03/01 06:54:48;;;;;;;20.50;14.88;;;;;;;;;;6030501;23;20019;-86
2023/03/01 06:57:18;;;;;;;19.58;14.45;;;;;;;;;;6036152;23;20015;-86
2023/03/01 06:59:47;;;;;;;23.60;15.27;;;;;;;;;;6009868;23;20020;-86
2023/03/01 07:02:19;;;;;;;23.63;15.07;;;;;;;;;;6010548;23;20019;-86
2023/03/01 07:04:49;;;;;;;23.73;16.58;;;;;;;;;;6035885;23;20030;-86
2023/03/01 07:07:17;;;;;;;25.17;16.35;;;;;;;;;;6046029;23;20012;-86
2023/03/01 07:09:45;;;;;;;25.52;15.77;;;;;;;;;;6037591;23;20019;-86
2023/03/01 07:12:12;;;;;;;24.38;13.57;;;;;;;;;;6035803;23;20015;-86
2023/03/01 07:14:44;;;;;;;20.02;14.38;;;;;;;;;;6015109;23;20023;-86
2023/03/01 07:17:14;;;;;;;20.80;13.80;;;;;;;;;;6049417;23;20345;-86
2023/03/01 07:19:41;;;;;;;21.30;13.25;;;;;;;;;;6037392;23;20019;-86
2023/03/01 07:22:09;;;;;;;15.80;12.20;;;;;;;;;;6036828;23;20015;-86
2023/03/01 07:24:38;;;;;;;15.93;11.90;;;;;;;;;;5989190;23;20352;-87
2023/03/01 07:27:06;;;;;;;14.88;11.70;;;;;;;;;;6010904;23;20330;-87
2023/03/01 07:38:25;;;;;;;17.75;11.82;;;;;;;;;;6143253;23;20021;-91
2023/03/01 07:40:53;;;;;;;18.52;13.63;;;;;;;;;;6102547;23;20473;-92
2023/03/01 07:43:20;;;;;;;19.25;13.60;;;;;;;;;;6100438;23;20018;-91
2023/03/01 07:45:47;;;;;;;21.00;12.20;;;;;;;;;;6073695;23;20018;-91
2023/03/01 07:48:15;;;;;;;25.55;13.68;;;;;;;;;;6073854;23;20743;-92
2023/03/01 07:50:43;;;;;;;28.50;12.98;;;;;;;;;;6072642;23;20022;-91
2023/03/01 07:53:12;;;;;;;15.35;11.70;;;;;;;;;;6073783;23;20026;-91
2023/03/01 07:55:42;;;;;;;15.82;11.43;;;;;;;;;;6097843;23;20022;-92
2023/03/01 07:58:09;;;;;;;17.70;12.57;;;;;;;;;;6098483;23;20018;-92
2023/03/01 08:00:36;;;;;;;14.95;12.13;;;;;;;;;;6073730;23;20029;-92
2023/03/01 08:03:04;;;;;;;21.40;14.85;;;;;;;;;;6072650;23;20041;-92
2023/03/01 08:05:31;;;;;;;14.55;11.57;;;;;;;;;;6098653;23;20020;-92
2023/03/01 08:08:01;;;;;;;17.02;11.73;;;;;;;;;;6074240;23;20033;-93
2023/03/01 08:10:30;;;;;;;18.73;13.07;;;;;;;;;;6074852;23;20018;-93
2023/03/01 08:13:02;;;;;;;16.63;12.07;;;;;;;;;;6097474;23;20029;-92
2023/03/01 08:15:32;;;;;;;19.85;13.38;;;;;;;;;;6098960;23;20029;-93
2023/03/01 08:18:00;;;;;;;18.20;11.90;;;;;;;;;;6097046;23;20022;-92
2023/03/01 08:20:28;;;;;;;14.75;11.95;;;;;;;;;;6073740;23;20022;-92
2023/03/01 08:22:55;;;;;;;17.88;13.00;;;;;;;;;;6097737;23;20193;-92
2023/03/01 08:25:23;;;;;;;19.73;11.98;;;;;;;;;;6074356;23;20024;-92
2023/03/01 08:27:50;;;;;;;18.20;13.13;;;;;;;;;;6096440;23;20025;-92
2023/03/01 08:30:20;;;;;;;19.98;12.65;;;;;;;;;;6096883;23;20048;-92
2023/03/01 08:32:47;;;;;;;18.98;14.82;;;;;;;;;;6072889;23;20018;-91
2023/03/01 08:35:18;;;;;;;16.42;11.57;;;;;;;;;;6072540;23;20465;-92
2023/03/01 08:37:45;;;;;;;23.33;13.50;;;;;;;;;;6073042;23;20018;-92
2023/03/01 08:40:14;;;;;;;17.83;12.30;;;;;;;;;;6072683;23;20028;-92
2023/03/01 08:42:42;;;;;;;22.85;14.20;;;;;;;;;;6095144;23;20033;-93
2023/03/01 08:45:11;;;;;;;17.67;12.55;;;;;;;;;;6096722;23;20454;-94
2023/03/01 08:47:40;;;;;;;20.00;14.73;;;;;;;;;;6096336;23;20030;-93
2023/03/01 08:50:08;;;;;;;18.10;12.73;;;;;;;;;;6072195;23;20022;-91
2023/03/01 08:52:38;;;;;;;19.73;13.75;;;;;;;;;;6071102;23;20026;-92
2023/03/01 08:55:07;;;;;;;21.38;14.57;;;;;;;;;;6073156;23;20024;-92
2023/03/01 08:57:34;;;;;;;19.25;12.95;;;;;;;;;;6096656;23;20022;-91
2023/03/01 09:00:08;;;;;;;19.60;13.98;;;;;;;;;;6073507;23;20030;-92
2023/03/01 09:02:35;;;;;;;18.70;12.85;;;;;;;;;;6072170;23;20033;-92
2023/03/01 09:05:04;;;;;;;20.48;15.63;;;;;;;;;;6073430;23;20014;-91
2023/03/01 09:07:35;;;;;;;20.25;13.68;;;;;;;;;;6072974;23;20321;-92
2023/03/01 09:10:03;;;;;;;18.95;14.57;;;;;;;;;;6096906;23;20014;-91
2023/03/01 09:12:30;;;;;;;24.10;15.48;;;;;;;;;;6072024;23;20037;-92
2023/03/01 09:15:00;;;;;;;23.70;14.13;;;;;;;;;;6096922;23;20018;-92
2023/03/01 09:17:27;;;;;;;18.48;12.30;;;;;;;;;;6073360;23;20037;-91
2023/03/01 09:19:55;;;;;;;17.65;13.27;;;;;;;;;;6096515;23;20101;-92
2023/03/01 09:22:24;;;;;;;18.33;13.23;;;;;;;;;;6095294;23;20029;-93
2023/03/01 09:24:51;;;;;;;21.33;13.48;;;;;;;;;;6071940;23;20033;-92
2023/03/01 09:27:18;;;;;;;26.30;14.50;;;;;;;;;;6072622;23;20018;-92
2023/03/01 09:29:46;;;;;;;20.85;14.13;;;;;;;;;;6072582;23;20591;-92
2023/03/01 09:32:13;;;;;;;23.67;16.50;;;;;;;;;;6072439;23;20022;-92
2023/03/01 09:37:24;;;;;;;24.35;14.23;;;;;;;;;;6071701;23;20021;-92
2023/03/01 09:39:54;;;;;;;18.52;13.18;;;;;;;;;;6099061;23;20017;-91
2023/03/01 09:42:22;;;;;;;18.20;13.38;;;;;;;;;;6162298;23;20028;-92
2023/03/01 09:44:53;;;;;;;19.60;13.02;;;;;;;;;;6119384;23;20017;-92
2023/03/01 09:47:22;;;;;;;20.40;13.20;;;;;;;;;;6094158;23;20515;-92
2023/03/01 09:49:59;;;;;;;16.48;12.43;;;;;;;;;;6020624;23;20028;-93
2023/03/01 09:52:35;;;;;;;18.73;12.98;;;;;;;;;;5847558;24;20024;-93
2023/03/01 09:55:10;;;;;;;17.83;13.85;;;;;;;;;;5658624;25;20037;-92
2023/03/01 10:12:36;;;;;;;20.45;15.70;;;;;;;;;;5131846;27;20116;-88
2023/03/01 10:15:06;;;;;;;;;;;;;;;;;;5070348;28;20044;-88
2023/03/01 10:17:36;;;;;;;19.25;14.48;;;;;;;;;;5094513;28;19920;-88
2023/03/01 10:20:16;;;;;;;17.60;12.30;;;;;;;;;;5038183;28;20047;-88
2023/03/01 10:22:46;;;;;;;18.25;13.80;;;;;;;;;;4924464;28;20044;-88
2023/03/01 10:25:14;;;;;;;17.17;13.40;;;;;;;;;;4799912;29;21744;-89
2023/03/01 10:27:50;;;;;;;24.60;13.20;;;;;;;;;;4620207;30;20404;-88
2023/03/01 10:58:08;;;;;;;14.50;11.18;;;;;;;;;;6261587;22;20177;-91
2023/03/01 11:00:46;;;;;;;19.80;13.02;;;;;;;;;;6247600;22;20012;-93
2023/03/01 11:03:15;;;;;;;17.88;11.50;;;;;;;;;;6201323;22;20024;-92
2023/03/01 11:05:56;;;;;;;17.10;12.20;;;;;;;;;;6245103;23;20020;-94
2023/03/01 11:08:32;;;;;;;20.60;13.65;;;;;;;;;;6216383;23;20032;-92
2023/03/01 11:11:20;;;;;;;14.77;12.60;;;;;;;;;;6151832;23;20468;-92
2023/03/01 11:13:56;;;;;;;18.70;12.25;;;;;;;;;;5937078;24;20018;-93
2023/03/01 11:16:34;;;;;;;18.45;11.35;;;;;;;;;;5629318;24;1349195;-93
2023/03/01 11:19:22;;;;;;;15.25;11.95;;;;;;;;;;5501019;25;20047;-93
2023/03/01 11:21:57;;;;;;;16.40;11.30;;;;;;;;;;5382951;26;20513;-93
2023/03/01 11:24:33;;;;;;;16.42;12.13;;;;;;;;;;5375793;26;20482;-92
2023/03/01 11:27:03;;;;;;;16.23;12.23;;;;;;;;;;5375565;26;20352;-93
2023/03/01 11:29:36;;;;;;;19.83;12.07;;;;;;;;;;5376661;26;20769;-91
2023/03/01 11:32:08;;;;;;;17.08;11.43;;;;;;;;;;5384121;26;20580;-91
2023/03/01 11:34:43;;;;;;;15.82;12.98;;;;;;;;;;5376818;26;20034;-92
2023/03/01 11:37:22;;;;;;;16.33;11.63;;;;;;;;;;5357074;26;20605;-93
2023/03/01 11:39:56;;;;;;;23.00;14.68;;;;;;;;;;5392909;26;20035;-93
2023/03/01 11:42:31;;;;;;;15.43;11.38;;;;;;;;;;5357166;26;20043;-92
2023/03/01 11:45:01;;;;;;;18.17;10.73;;;;;;;;;;5394923;26;20805;-93
2023/03/01 11:47:43;;;;;;;15.43;11.52;;;;;;;;;;5376706;26;20028;-92
2023/03/01 11:50:17;;;;;;;16.40;11.82;;;;;;;;;;5394477;26;20046;-92
2023/03/01 11:52:56;;;;;;;18.65;11.57;;;;;;;;;;5394291;26;20039;-92
2023/03/01 11:55:37;;;;;;;17.15;11.50;;;;;;;;;;5395081;26;20520;-93
2023/03/01 11:58:13;;;;;;;17.30;11.93;;;;;;;;;;5391951;26;20028;-91
2023/03/01 12:01:01;;;;;;;16.67;11.40;;;;;;;;;;5389957;26;20028;-92
2023/03/01 12:03:43;;;;;;;15.50;11.05;;;;;;;;;;5390852;26;20370;-91
2023/03/01 12:06:31;;;;;;;;;;;;;;;;;;5391046;26;20031;-91
2023/03/01 12:09:08;;;;;;;13.77;10.77;;;;;;;;;;5388926;26;19931;-92
2023/03/01 12:11:44;;;;;;;13.93;11.50;;;;;;;;;;5389806;26;20039;-93
2023/03/01 12:14:33;;;;;;;13.48;11.18;;;;;;;;;;5390637;26;20046;-92
2023/03/01 12:17:10;;;;;;;18.23;12.32;;;;;;;;;;5371108;26;20032;-93
2023/03/01 12:19:52;;;;;;;17.48;12.10;;;;;;;;;;5651740;24;20037;-92
2023/03/01 12:22:31;;;;;;;15.98;10.90;;;;;;;;;;5656035;25;20031;-92
2023/03/01 12:25:25;;;;;;;21.30;12.05;;;;;;;;;;5657536;25;20041;-91
2023/03/01 12:28:21;;;;;;;16.90;10.82;;;;;;;;;;5636924;25;20030;-92
2023/03/01 12:31:01;;;;;;;14.68;11.38;;;;;;;;;;5651849;25;20031;-92
2023/03/01 12:33:38;;;;;;;13.77;9.68;;;;;;;;;;5652024;25;20033;-93
2023/03/01 12:36:45;;;;;;;12.68;9.65;;;;;;;;;;5631449;25;20030;-92
2023/03/01 12:39:27;;;;;;;15.88;12.07;;;;;;;;;;5631652;25;20035;-92
2023/03/01 12:42:02;;;;;;;16.98;11.27;;;;;;;;;;5650977;25;20030;-91
2023/03/01 12:44:44;;;;;;;11.98;9.05;;;;;;;;;;5651913;25;20031;-92
2023/03/01 12:47:20;;;;;;;14.52;10.77;;;;;;;;;;5631465;25;20026;-91
2023/03/01 12:49:52;;;;;;;14.85;11.77;;;;;;;;;;5652810;25;20026;-92
2023/03/01 12:52:25;;;;;;;18.25;11.68;;;;;;;;;;5650519;25;20027;-92
2023/03/01 12:54:54;;;;;;;14.98;10.57;;;;;;;;;;5652218;25;20027;-92
2023/03/01 12:57:29;;;;;;;13.90;9.70;;;;;;;;;;5652158;25;20026;-92
2023/03/01 13:00:09;;;;;;;17.55;11.30;;;;;;;;;;5653302;25;20514;-92
2023/03/01 13:02:41;;;;;;;15.52;11.10;;;;;;;;;;5652508;25;20034;-93
2023/03/01 13:05:24;;;;;;;15.52;10.68;;;;;;;;;;5632672;25;20023;-93
2023/03/01 13:07:56;;;;;;;14.73;10.52;;;;;;;;;;5652650;25;20026;-93
2023/03/01 13:10:28;;;;;;;13.20;9.43;;;;;;;;;;5630995;25;20037;-93
2023/03/01 13:13:09;;;;;;;16.10;11.57;;;;;;;;;;5651936;25;20026;-92
2023/03/01 13:15:40;;;;;;;11.20;9.30;;;;;;;;;;5652028;25;20031;-92
2023/03/01 13:18:33;;;;;;;12.90;10.45;;;;;;;;;;5641952;24;1550315;-93
2023/03/01 13:21:28;;;;;;;14.13;9.90;;;;;;;;;;5841576;24;20023;-92
2023/03/01 13:23:59;;;;;;;16.30;11.60;;;;;;;;;;5840120;24;20027;-92
2023/03/01 13:26:27;;;;;;;18.55;9.23;;;;;;;;;;5842041;24;20045;-92
2023/03/01 13:29:00;;;;;;;13.88;11.57;;;;;;;;;;5842470;24;20022;-93
2023/03/01 13:32:03;;;;;;;16.40;10.88;;;;;;;;;;5861195;24;20030;-92
2023/03/01 13:34:56;;;;;;;12.43;8.52;;;;;;;;;;5846827;24;20030;-92
2023/03/01 13:37:37;;;;;;;15.35;9.85;;;;;;;;;;5806962;24;20070;-92
2023/03/01 13:40:55;;;;;;;11.75;9.40;;;;;;;;;;5841909;24;20022;-91
2023/03/01 13:43:30;;;;;;;12.80;10.02;;;;;;;;;;5863721;24;20046;-92
2023/03/01 13:45:58;;;;;;;14.25;10.20;;;;;;;;;;5863817;24;20038;-92
2023/03/01 13:48:29;;;;;;;17.42;11.32;;;;;;;;;;5843407;24;20505;-92
2023/03/01 13:51:00;;;;;;;12.48;10.02;;;;;;;;;;5840951;24;20025;-92
2023/03/01 13:53:34;;;;;;;16.02;10.23;;;;;;;;;;5864203;24;20030;-92
2023/03/01 13:56:04;;;;;;;14.15;10.10;;;;;;;;;;5864654;24;20471;-92
2023/03/01 13:58:33;;;;;;;15.32;10.90;;;;;;;;;;5865036;24;20498;-92
2023/03/01 14:01:02;;;;;;;11.68;9.57;;;;;;;;;;5817954;24;20494;-92
2023/03/01 14:03:31;;;;;;;19.80;11.20;;;;;;;;;;5864356;24;20022;-93
2023/03/01 14:06:07;;;;;;;17.08;10.25;;;;;;;;;;5819563;24;20027;-92
2023/03/01 14:08:37;;;;;;;12.82;8.82;;;;;;;;;;5863848;24;20376;-91
2023/03/01 14:11:23;;;;;;;13.48;10.20;;;;;;;;;;5841835;24;20022;-92
2023/03/01 14:14:10;;;;;;;12.38;9.43;;;;;;;;;;5841506;24;20025;-92
2023/03/01 14:16:46;;;;;;;20.30;11.55;;;;;;;;;;5822040;24;20022;-92
2023/03/01 14:19:19;;;;;;;14.27;11.48;;;;;;;;;;5885314;23;20025;-93
2023/03/01 14:21:47;;;;;;;15.20;10.80;;;;;;;;;;5923570;24;20028;-93
2023/03/01 14:24:22;;;;;;;15.32;11.52;;;;;;;;;;5927208;24;20021;-93
2023/03/01 14:26:50;;;;;;;14.68;10.73;;;;;;;;;;5926802;24;20024;-92
2023/03/01 14:29:28;;;;;;;12.95;9.93;;;;;;;;;;5927795;24;20028;-92
2023/03/01 14:31:55;;;;;;;16.02;11.23;;;;;;;;;;5960682;24;20019;-92
2023/03/01 14:34:24;;;;;;;14.63;10.20;;;;;;;;;;5925179;24;20473;-92
2023/03/01 14:36:52;;;;;;;14.13;9.38;;;;;;;;;;5927099;24;20031;-93
2023/03/01 14:39:26;;;;;;;17.98;9.98;;;;;;;;;;5926585;24;20035;-94
2023/03/01 14:41:55;;;;;;;13.80;9.82;;;;;;;;;;5925778;24;20365;-93
2023/03/01 14:44:25;;;;;;;14.65;10.73;;;;;;;;;;5927437;24;20031;-93
2023/03/01 14:46:56;;;;;;;13.27;10.18;;;;;;;;;;5927048;24;20025;-93
2023/03/01 14:49:27;;;;;;;15.25;9.20;;;;;;;;;;5950660;24;20021;-92
2023/03/01 14:51:58;;;;;;;13.43;9.60;;;;;;;;;;5926006;24;20027;-92
2023/03/01 14:54:28;;;;;;;13.65;10.38;;;;;;;;;;5949723;24;20040;-93
2023/03/01 14:56:59;;;;;;;17.02;10.98;;;;;;;;;;5949813;24;20017;-93
2023/03/01 14:59:29;;;;;;;14.18;9.40;;;;;;;;;;5959958;24;20024;-93
2023/03/01 15:02:00;;;;;;;16.20;10.75;;;;;;;;;;5926528;24;20027;-94
2023/03/01 15:04:30;;;;;;;16.17;10.55;;;;;;;;;;5927206;24;20025;-93
2023/03/01 15:07:04;;;;;;;18.58;10.90;;;;;;;;;;5949383;24;20021;-93
2023/03/01 15:09:37;;;;;;;15.68;10.52;;;;;;;;;;5951325;24;20025;-92
2023/03/01 15:12:35;;;;;;;15.80;10.38;;;;;;;;;;5926827;24;20021;-93
2023/03/01 15:18:37;;;;;;;14.15;9.05;;;;;;;;;;5985859;23;20019;-93
2023/03/01 15:21:23;;;;;;;15.27;10.05;;;;;;;;;;6063789;23;20019;-94
2023/03/01 15:24:48;;;;;;;11.32;9.00;;;;;;;;;;6040089;23;20471;-93
2023/03/01 15:27:32;;;;;;;12.63;9.77;;;;;;;;;;6072447;23;20033;-93
2023/03/01 15:30:04;;;;;;;11.52;9.52;;;;;;;;;;6039117;23;20580;-92
2023/03/01 15:32:36;;;;;;;15.45;10.15;;;;;;;;;;6039834;23;20014;-92
2023/03/01 15:35:36;;;;;;;16.20;11.18;;;;;;;;;;6064009;23;20038;-92
2023/03/01 15:38:04;;;;;;;16.33;10.95;;;;;;;;;;6039631;23;20494;-92
2023/03/01 15:40:37;;;;;;;17.17;9.27;;;;;;;;;;6040782;23;20023;-92
2023/03/01 15:43:06;;;;;;;14.43;9.65;;;;;;;;;;6040054;23;20039;-92
2023/03/01 15:45:38;;;;;;;11.88;8.90;;;;;;;;;;6039912;23;20485;-93
2023/03/01 15:48:15;;;;;;;14.07;10.45;;;;;;;;;;6064518;23;20019;-93